Terminal Aerodrome Forecast
Issued by NWS Pocatello, ID

Home | Current Version | Previous Version | Text Only | Print | Product List | Glossary On
Versions: 1 2 3 4 5 6 7 8 9 10 11 12 13 14 15 16
000
FTUS45 KPIH 170900 AAA
TAFIDA
TAF AMD
KIDA 170900Z 1709/1806 04003KT P6SM VCFG FEW002
      TEMPO 1710/1714 4SM BR BKN002
     FM171700 34006KT 6SM HZ SCT004
     FM180400 36004KT P6SM VCSH FEW002=

USA.gov is the U.S. government's official web portal to all federal, state and local government web resources and services.